• Join FlightAware (Why Join?)
  • Login
  • US Flag 
02:48AM EDT


 

Airport Tracker/Info


-or-


 

Live Flight TrackerFlight Track Log ✈ DAL6234 ✈ 14-Apr-2013 ✈ KSYR - KLGA

Flight Track Log - Related Links

Times and Time Zones

All times are in EDT time to prevent confusion due to time zone crossing. See the DAL6234 flight status page for this flight to view local times or setup timezone preferences in your user account.

Time Position Orientation Groundspeed Altitude Reporting Facility
EDT Latitude Longitude Course Direction KTS MPH feet Rate Location/Type
05:52PM 43.1078 -76.1292 214° Southwest 152 175 1,000  Level Boston Center
05:54PM 43.0733 -76.1611 214° Southwest 205 236 4,100 2,100 Climbing Boston Center
05:55PM 43.0636 -76.0753 99° East 261 300 6,100 2,400 Climbing Boston Center
05:56PM 43.0464 -75.9578 101° East 280 322 9,300 1,980 Climbing Boston Center
05:57PM 42.9889 -75.8578 128° Southeast 298 343 10,000 1,200 Climbing Boston Center
05:58PM 42.9103 -75.7711 141° Southeast 328 377 11,800 1,740 Climbing Boston Center
05:59PM 42.8236 -75.6675 139° Southeast 373 429 13,600 1,920 Climbing Boston Center
06:00PM 42.7308 -75.5581 139° Southeast 418 481 15,700 2,040 Climbing Boston Center
06:01PM 42.6358 -75.4458 139° Southeast 445 512 17,800 1,980 Climbing Boston Center
06:02PM 42.5408 -75.3314 138° Southeast 455 524 19,700 1,620 Climbing Boston Center
06:03PM 42.4444 -75.1806 131° Southeast 468 539 21,000 660 Climbing Boston Center
06:04PM 42.3836 -75.0150 116° Southeast 485 558 21,000  Level Boston Center
06:05PM 42.3228 -74.8494 116° Southeast 490 564 21,000  Level Boston Center
06:06PM 42.2614 -74.6872 117° Southeast 490 564 21,000 -660 Level Boston Center
06:07PM 42.2019 -74.5225 116° Southeast 485 558 19,700 -1,260 Descending Boston Center
06:08PM 42.1422 -74.3636 117° Southeast 479 551 18,500 -900 Descending Boston Center
06:09PM 42.0861 -74.2306 120° Southeast 468 539 18,000 -360 Descending Boston Center
06:10PM 41.9772 -74.1269 145° Southeast 439 505 17,800 -1,080 Descending Boston Center
06:11PM 41.8636 -74.0681 159° South 433 498 15,900 -1,740 Descending Boston Center
06:12PM 41.7539 -74.0094 158° South 433 498 14,400 -1,680 Descending Boston Center
06:13PM 41.6503 -73.9569 159° South 417 480 12,600 -1,620 Descending Boston Center
06:14PM 41.5739 -73.9164 158° South 395 455 11,200 -1,680 Descending Boston Center
06:15PM 41.4667 -73.8667 161° South 328 377 9,400 -1,560 Descending New York TRACON
06:16PM 41.3833 -73.8167 156° South 317 365 8,200 -1,500 Descending New York TRACON
06:17PM 41.3167 -73.7667 151° Southeast 313 360 6,500 -1,500 Descending New York TRACON
06:18PM 41.2500 -73.7167 151° Southeast 284 327 5,300 -780 Descending New York TRACON
06:19PM 41.1833 -73.6500 143° Southeast 273 314 5,000 -600 Descending New York TRACON
06:20PM 41.1167 -73.6333 169° South 273 314 4,100 -540 Descending New York TRACON
06:21PM 41.0333 -73.6333 180° South 272 313 4,000 -60 Descending New York TRACON
06:22PM 40.9667 -73.6167 169° South 271 312 4,000  Level New York TRACON
06:23PM 40.8833 -73.6167 180° South 269 310 4,000  Level New York TRACON
06:24PM 40.8333 -73.6667 217° Southwest 256 295 4,000  Level New York TRACON
06:25PM 40.8000 -73.7333 237° Southwest 246 283 4,000  Level New York TRACON
06:26PM 40.7833 -73.8167 255° West 204 235 4,000  Level New York TRACON
06:27PM 40.7833 -73.8833 270° West 176 203 4,000  Level New York TRACON
06:28PM 40.7667 -73.9500 252° West 180 207 4,000  Level New York TRACON
06:29PM 40.7500 -74.0167 252° West 184 212 4,000  Level New York TRACON
06:30PM 40.7333 -74.0833 252° West 189 217 4,000 -240 Level New York TRACON
06:31PM 40.6833 -74.0500 153° Southeast 211 243 3,600 -600 Descending New York TRACON
06:32PM 40.6833 -74.0000 90° East 186 214 2,900 -540 Descending New York TRACON
06:33PM 40.7167 -73.9500 49° Northeast 165 190 2,600 -540 Descending New York TRACON
06:34PM 40.7333 -73.9000 66° East 152 175 1,900 -660 Descending New York TRACON
06:35PM 40.7333 -73.8500 90° East 136 157 1,300 -600 Descending New York TRACON
06:36PM 40.7667 -73.8333 21° North 139 160 700 -600 Descending New York TRACON